createdAt,value
2019-03-10T00:00:32.391Z,4.80
2019-03-10T00:05:38.483Z,4.90
2019-03-10T00:10:43.338Z,4.90
2019-03-10T00:15:48.308Z,5.10
2019-03-10T00:20:53.159Z,5.20
2019-03-10T00:25:57.993Z,5.30
2019-03-10T00:31:03.006Z,5.30
2019-03-10T00:36:07.832Z,5.20
2019-03-10T00:41:46.777Z,4.90
2019-03-10T00:47:00.155Z,4.70
2019-03-10T00:52:19.852Z,4.60
2019-03-10T00:57:24.692Z,4.40
2019-03-10T01:02:29.526Z,4.40
2019-03-10T01:07:34.367Z,4.40
2019-03-10T01:12:39.192Z,4.40
2019-03-10T01:17:44.432Z,4.30
2019-03-10T01:22:49.262Z,4.40
2019-03-10T01:27:54.098Z,4.30
2019-03-10T01:33:19.843Z,4.30
2019-03-10T01:38:24.680Z,4.30
2019-03-10T01:43:29.455Z,4.30
2019-03-10T01:48:34.305Z,4.30
2019-03-10T01:53:39.126Z,4.30
2019-03-10T01:58:43.894Z,4.20
2019-03-10T02:03:48.948Z,4.10
2019-03-10T02:08:55.567Z,4.10
2019-03-10T02:14:00.396Z,4.10
2019-03-10T02:19:05.830Z,4.10
2019-03-10T02:24:11.253Z,4.20
2019-03-10T02:29:16.588Z,4.20
2019-03-10T02:34:21.826Z,4.20
2019-03-10T02:39:27.357Z,4.30
2019-03-10T02:44:33.954Z,4.20
2019-03-10T02:49:39.253Z,4.10
2019-03-10T02:54:44.372Z,4.00
2019-03-10T02:59:50.390Z,4.00
2019-03-10T03:04:55.918Z,4.00
2019-03-10T03:10:00.872Z,4.10
2019-03-10T03:15:07.209Z,4.10
2019-03-10T03:20:12.747Z,4.10
2019-03-10T03:25:17.611Z,4.10
2019-03-10T03:30:22.520Z,4.20
2019-03-10T03:35:50.665Z,4.30
2019-03-10T03:41:01.342Z,4.30
2019-03-10T03:46:06.187Z,4.30
2019-03-10T03:51:11.027Z,4.20
2019-03-10T03:56:15.781Z,4.10
2019-03-10T04:01:25.240Z,4.00
2019-03-10T04:06:30.060Z,4.00
2019-03-10T04:11:35.018Z,3.90
2019-03-10T04:16:39.858Z,3.80
2019-03-10T04:21:44.638Z,3.90
2019-03-10T04:26:49.463Z,4.00
2019-03-10T04:31:54.302Z,4.00
2019-03-10T04:36:59.143Z,4.00
2019-03-10T04:42:03.982Z,4.00
2019-03-10T04:47:08.746Z,4.00
2019-03-10T04:52:13.583Z,4.00
2019-03-10T04:57:19.980Z,4.00
2019-03-10T05:02:24.821Z,4.00
2019-03-10T05:07:31.211Z,4.00
2019-03-10T05:12:36.155Z,4.10
2019-03-10T05:17:41.011Z,4.10
2019-03-10T05:22:45.865Z,4.10
2019-03-10T05:27:51.809Z,4.10
2019-03-10T05:32:56.647Z,4.10
2019-03-10T05:38:01.439Z,4.10
2019-03-10T05:43:06.278Z,4.10
2019-03-10T05:48:11.126Z,4.20
2019-03-10T05:53:15.944Z,4.20
2019-03-10T05:58:20.771Z,4.20
2019-03-10T06:03:25.544Z,4.30
2019-03-10T06:08:30.378Z,4.30
2019-03-10T06:13:35.249Z,4.40
2019-03-10T06:18:40.073Z,4.30
2019-03-10T06:23:44.919Z,4.40
2019-03-10T06:28:50.929Z,4.40
2019-03-10T06:33:55.922Z,4.50
2019-03-10T06:39:00.750Z,4.60
2019-03-10T06:44:06.176Z,4.80
2019-03-10T06:49:11.010Z,4.80
2019-03-10T06:54:15.791Z,5.00
2019-03-10T06:59:20.566Z,5.00
2019-03-10T07:04:25.765Z,5.00
2019-03-10T07:09:30.610Z,5.10
2019-03-10T07:14:35.713Z,5.10
2019-03-10T07:19:40.552Z,5.10
2019-03-10T07:24:45.384Z,5.30
2019-03-10T07:29:54.356Z,5.40
2019-03-10T07:35:16.986Z,5.40
2019-03-10T07:40:26.215Z,5.50
2019-03-10T07:45:38.358Z,5.60
2019-03-10T07:50:50.460Z,5.70
2019-03-10T07:55:56.953Z,5.80
2019-03-10T08:01:03.435Z,5.70
2019-03-10T08:06:09.936Z,5.80
2019-03-10T08:11:16.410Z,6.00
2019-03-10T08:16:25.964Z,6.30
2019-03-10T08:21:38.205Z,6.40
2019-03-10T08:27:21.533Z,6.60
2019-03-10T08:32:28.006Z,6.60
2019-03-10T08:37:37.172Z,6.70
2019-03-10T08:42:49.887Z,6.60
2019-03-10T08:47:58.185Z,6.70
2019-03-10T08:53:04.463Z,6.80
2019-03-10T08:58:16.868Z,6.80
2019-03-10T09:03:25.188Z,6.80
2019-03-10T09:08:31.644Z,6.60
2019-03-10T09:13:44.264Z,6.60
2019-03-10T09:18:53.792Z,6.50
2019-03-10T09:24:03.250Z,6.70
2019-03-10T09:29:24.933Z,6.70
2019-03-10T09:34:48.279Z,6.80
2019-03-10T09:39:54.753Z,7.60
2019-03-10T09:45:07.216Z,8.00
2019-03-10T09:50:13.715Z,7.70
2019-03-10T09:55:21.355Z,7.70
2019-03-10T10:00:27.818Z,8.10
2019-03-10T10:05:37.071Z,8.20
2019-03-10T10:10:43.563Z,8.00
2019-03-10T10:15:55.983Z,8.00
2019-03-10T10:21:08.294Z,8.10
2019-03-10T10:26:20.573Z,8.30
2019-03-10T10:31:27.054Z,8.00
2019-03-10T10:36:36.112Z,7.70
2019-03-10T10:41:48.494Z,7.80
2019-03-10T10:46:57.667Z,7.90
2019-03-10T10:52:04.075Z,7.90
2019-03-10T10:57:13.153Z,8.20
2019-03-10T11:02:22.773Z,8.90
2019-03-10T11:07:45.525Z,8.80
2019-03-10T11:12:57.820Z,9.10
2019-03-10T11:18:10.212Z,9.20
2019-03-10T11:23:31.817Z,8.60
2019-03-10T11:28:48.435Z,8.30
2019-03-10T11:33:54.852Z,8.40
2019-03-10T11:39:02.213Z,8.30
2019-03-10T11:44:11.716Z,8.30
2019-03-10T11:49:18.199Z,8.10
2019-03-10T11:54:24.679Z,7.90
2019-03-10T11:59:42.790Z,8.10
2019-03-10T12:04:49.259Z,8.20
2019-03-10T12:09:54.084Z,8.20
2019-03-10T12:14:58.912Z,8.20
2019-03-10T12:20:05.854Z,8.30
2019-03-10T12:25:12.881Z,8.30
2019-03-10T12:30:17.883Z,8.10
2019-03-10T12:35:33.643Z,8.10
2019-03-10T12:40:30.314Z,8.00
2019-03-10T12:45:35.749Z,8.00
2019-03-10T12:50:40.587Z,8.00
2019-03-10T12:55:45.424Z,8.10
2019-03-10T13:00:50.256Z,8.30
2019-03-10T13:05:55.149Z,8.40
2019-03-10T13:11:00.006Z,8.50
2019-03-10T13:16:04.832Z,8.50
2019-03-10T13:21:09.677Z,8.40
2019-03-10T13:26:14.437Z,8.30
2019-03-10T13:31:19.396Z,8.20
2019-03-10T13:36:24.243Z,8.20
2019-03-10T13:41:32.415Z,8.20
2019-03-10T13:46:37.281Z,8.30
2019-03-10T13:51:42.480Z,8.40
2019-03-10T14:02:06.869Z,8.40
2019-03-10T14:07:11.637Z,8.30
2019-03-10T14:12:16.880Z,8.30
2019-03-10T14:17:21.723Z,8.20
2019-03-10T14:22:26.560Z,8.10
2019-03-10T14:27:31.404Z,8.10
2019-03-10T14:32:36.485Z,8.10
2019-03-10T14:37:41.695Z,8.00
2019-03-10T14:42:46.595Z,8.00
2019-03-10T14:47:51.434Z,7.90
2019-03-10T14:52:56.287Z,7.90
2019-03-10T14:58:01.108Z,7.90
2019-03-10T15:03:05.937Z,7.80
2019-03-10T15:08:10.820Z,7.80
2019-03-10T15:13:15.702Z,7.70
2019-03-10T15:18:20.565Z,7.70
2019-03-10T15:23:25.396Z,7.60
2019-03-10T15:28:30.247Z,7.50
2019-03-10T15:33:35.064Z,7.40
2019-03-10T15:38:39.897Z,7.40
2019-03-10T15:43:44.908Z,7.40
2019-03-10T15:48:50.021Z,7.40
2019-03-10T15:53:54.864Z,7.40
2019-03-10T15:59:00.065Z,7.30
2019-03-10T16:04:20.793Z,7.20
2019-03-10T16:09:25.611Z,7.20
2019-03-10T16:14:30.446Z,7.20
2019-03-10T16:19:35.294Z,7.10
2019-03-10T16:24:40.144Z,7.00
2019-03-10T16:29:44.972Z,6.90
2019-03-10T16:34:49.796Z,6.80
2019-03-10T16:39:54.625Z,6.70
2019-03-10T16:44:59.519Z,6.70
2019-03-10T16:50:07.317Z,6.60
2019-03-10T16:55:12.236Z,6.50
2019-03-10T17:00:20.932Z,6.50
2019-03-10T17:05:25.767Z,6.50
2019-03-10T17:10:30.592Z,6.40
2019-03-10T17:15:35.571Z,6.30
2019-03-10T17:20:40.327Z,6.20
2019-03-10T17:25:45.183Z,6.20
2019-03-10T17:30:50.048Z,6.20
2019-03-10T17:35:54.965Z,6.00
2019-03-10T17:40:59.827Z,6.00
2019-03-10T17:46:20.316Z,6.00
2019-03-10T17:51:25.423Z,5.90
2019-03-10T17:56:30.304Z,5.90
2019-03-10T18:01:35.545Z,5.80
2019-03-10T18:06:40.431Z,5.70
2019-03-10T18:11:45.209Z,5.70
2019-03-10T18:16:50.050Z,5.70
2019-03-10T18:21:54.833Z,5.60
2019-03-10T18:26:59.731Z,5.60
2019-03-10T18:32:04.669Z,5.70
2019-03-10T18:37:09.604Z,5.70
2019-03-10T18:42:14.457Z,5.60
2019-03-10T18:47:19.462Z,5.70
2019-03-10T18:52:24.914Z,5.60
2019-03-10T18:57:29.785Z,5.50
2019-03-10T19:02:36.163Z,5.50
2019-03-10T19:07:41.033Z,5.50
2019-03-10T19:12:45.893Z,5.50
2019-03-10T19:17:50.838Z,5.50
2019-03-10T19:22:55.839Z,5.50
2019-03-10T19:28:00.705Z,5.40
2019-03-10T19:33:05.579Z,5.40
2019-03-10T19:38:10.360Z,5.30
2019-03-10T19:43:18.824Z,5.30
2019-03-10T19:48:23.756Z,5.30
2019-03-10T19:53:28.606Z,5.10
2019-03-10T19:58:33.467Z,5.10
2019-03-10T20:03:38.774Z,5.00
2019-03-10T20:08:43.650Z,5.00
2019-03-10T20:13:48.387Z,5.00
2019-03-10T20:18:53.224Z,4.70
2019-03-10T20:24:01.170Z,4.50
2019-03-10T20:29:05.971Z,4.60
2019-03-10T20:34:10.771Z,4.50
2019-03-10T20:39:15.633Z,4.60
2019-03-10T20:44:20.515Z,4.60
2019-03-10T20:49:25.457Z,4.60
2019-03-10T20:54:30.316Z,4.60
2019-03-10T20:59:35.232Z,4.60
2019-03-10T21:04:40.779Z,4.40
2019-03-10T21:09:45.773Z,4.30
2019-03-10T21:14:50.564Z,4.30
2019-03-10T21:19:55.416Z,4.20
2019-03-10T21:25:00.387Z,4.30
2019-03-10T21:30:08.186Z,4.30
2019-03-10T21:35:17.536Z,4.30
2019-03-10T21:40:21.648Z,4.30
2019-03-10T21:45:26.545Z,4.30
2019-03-10T21:50:31.955Z,4.20
2019-03-10T21:55:37.132Z,4.20
2019-03-10T22:00:43.462Z,4.20
2019-03-10T22:05:49.002Z,4.30
2019-03-10T22:10:53.882Z,4.30
2019-03-10T22:15:58.690Z,4.30
2019-03-10T22:21:03.563Z,4.20
2019-03-10T22:26:08.419Z,4.10
2019-03-10T22:31:13.204Z,4.00
2019-03-10T22:36:18.006Z,3.90
2019-03-10T22:41:22.870Z,3.80
2019-03-10T22:46:27.734Z,3.60
2019-03-10T22:51:32.648Z,3.50
2019-03-10T22:56:37.495Z,3.40
2019-03-10T23:01:42.432Z,3.40
2019-03-10T23:06:47.278Z,3.40
2019-03-10T23:11:52.117Z,3.40
2019-03-10T23:16:57.004Z,3.40
2019-03-10T23:22:01.856Z,3.40
2019-03-10T23:27:06.837Z,3.40
2019-03-10T23:32:11.554Z,3.40
2019-03-10T23:37:16.422Z,3.40
2019-03-10T23:42:21.454Z,3.40
2019-03-10T23:47:26.296Z,3.40
2019-03-10T23:52:31.219Z,3.40
2019-03-10T23:57:36.081Z,3.50
